sensor_id;sensor_type;location;lat;lon;timestamp;P1;durP1;ratioP1;P2;durP2;ratioP2
6209;SDS011;3138;52.550;13.148;2023-12-07T00:01:50;48.23;;;26.40;;
6209;SDS011;3138;52.550;13.148;2023-12-07T00:04:17;48.67;;;25.73;;
6209;SDS011;3138;52.550;13.148;2023-12-07T00:06:45;49.07;;;27.70;;
6209;SDS011;3138;52.550;13.148;2023-12-07T00:09:11;46.00;;;27.83;;
6209;SDS011;3138;52.550;13.148;2023-12-07T00:11:38;44.67;;;26.17;;
6209;SDS011;3138;52.550;13.148;2023-12-07T00:14:05;40.70;;;24.80;;
6209;SDS011;3138;52.550;13.148;2023-12-07T00:16:32;39.13;;;24.40;;
6209;SDS011;3138;52.550;13.148;2023-12-07T00:18:59;45.77;;;26.80;;
6209;SDS011;3138;52.550;13.148;2023-12-07T00:21:26;40.47;;;24.27;;
6209;SDS011;3138;52.550;13.148;2023-12-07T00:23:54;48.00;;;24.27;;
6209;SDS011;3138;52.550;13.148;2023-12-07T00:26:21;46.93;;;24.70;;
6209;SDS011;3138;52.550;13.148;2023-12-07T00:28:47;41.77;;;25.70;;
6209;SDS011;3138;52.550;13.148;2023-12-07T00:31:14;39.10;;;24.40;;
6209;SDS011;3138;52.550;13.148;2023-12-07T00:33:41;41.73;;;25.67;;
6209;SDS011;3138;52.550;13.148;2023-12-07T00:36:08;42.67;;;24.60;;
6209;SDS011;3138;52.550;13.148;2023-12-07T00:38:35;51.87;;;28.70;;
6209;SDS011;3138;52.550;13.148;2023-12-07T00:41:03;41.93;;;24.77;;
6209;SDS011;3138;52.550;13.148;2023-12-07T00:43:30;44.10;;;26.13;;
6209;SDS011;3138;52.550;13.148;2023-12-07T00:45:57;46.03;;;25.70;;
6209;SDS011;3138;52.550;13.148;2023-12-07T00:48:24;47.77;;;27.40;;
6209;SDS011;3138;52.550;13.148;2023-12-07T00:50:50;47.57;;;28.40;;
6209;SDS011;3138;52.550;13.148;2023-12-07T00:53:17;42.73;;;26.63;;
6209;SDS011;3138;52.550;13.148;2023-12-07T00:55:44;43.33;;;27.40;;
6209;SDS011;3138;52.550;13.148;2023-12-07T00:58:12;42.47;;;27.40;;
6209;SDS011;3138;52.550;13.148;2023-12-07T01:00:39;47.00;;;26.27;;
6209;SDS011;3138;52.550;13.148;2023-12-07T01:03:06;48.47;;;26.63;;
6209;SDS011;3138;52.550;13.148;2023-12-07T01:05:33;42.40;;;24.20;;
6209;SDS011;3138;52.550;13.148;2023-12-07T01:08:00;44.07;;;25.13;;
6209;SDS011;3138;52.550;13.148;2023-12-07T01:10:27;44.30;;;25.20;;
6209;SDS011;3138;52.550;13.148;2023-12-07T01:12:53;42.00;;;25.27;;
6209;SDS011;3138;52.550;13.148;2023-12-07T01:15:22;44.43;;;25.77;;
6209;SDS011;3138;52.550;13.148;2023-12-07T01:17:48;45.10;;;27.37;;
6209;SDS011;3138;52.550;13.148;2023-12-07T01:20:15;49.40;;;27.70;;
6209;SDS011;3138;52.550;13.148;2023-12-07T01:22:42;68.13;;;26.57;;
6209;SDS011;3138;52.550;13.148;2023-12-07T01:25:10;51.67;;;27.77;;
6209;SDS011;3138;52.550;13.148;2023-12-07T01:27:38;53.57;;;28.40;;
6209;SDS011;3138;52.550;13.148;2023-12-07T01:30:06;57.20;;;30.17;;
6209;SDS011;3138;52.550;13.148;2023-12-07T01:32:35;49.33;;;28.30;;
6209;SDS011;3138;52.550;13.148;2023-12-07T01:35:01;47.03;;;27.90;;
6209;SDS011;3138;52.550;13.148;2023-12-07T01:37:28;47.90;;;27.67;;
6209;SDS011;3138;52.550;13.148;2023-12-07T01:39:55;45.10;;;26.73;;
6209;SDS011;3138;52.550;13.148;2023-12-07T01:42:22;51.97;;;28.73;;
6209;SDS011;3138;52.550;13.148;2023-12-07T01:44:49;44.20;;;26.07;;
6209;SDS011;3138;52.550;13.148;2023-12-07T01:47:16;41.63;;;25.80;;
6209;SDS011;3138;52.550;13.148;2023-12-07T01:49:44;46.27;;;26.93;;
6209;SDS011;3138;52.550;13.148;2023-12-07T01:52:11;42.00;;;25.43;;
6209;SDS011;3138;52.550;13.148;2023-12-07T01:54:38;46.73;;;24.17;;
6209;SDS011;3138;52.550;13.148;2023-12-07T01:57:05;45.03;;;26.30;;
6209;SDS011;3138;52.550;13.148;2023-12-07T01:59:32;49.93;;;29.00;;
6209;SDS011;3138;52.550;13.148;2023-12-07T02:02:00;44.17;;;26.70;;
6209;SDS011;3138;52.550;13.148;2023-12-07T02:04:27;53.73;;;28.70;;
6209;SDS011;3138;52.550;13.148;2023-12-07T02:06:56;53.07;;;28.50;;
6209;SDS011;3138;52.550;13.148;2023-12-07T02:09:24;53.97;;;27.90;;
6209;SDS011;3138;52.550;13.148;2023-12-07T02:11:51;63.13;;;30.07;;
6209;SDS011;3138;52.550;13.148;2023-12-07T02:14:18;51.10;;;26.57;;
6209;SDS011;3138;52.550;13.148;2023-12-07T02:16:46;52.83;;;29.10;;
6209;SDS011;3138;52.550;13.148;2023-12-07T02:19:19;48.30;;;26.83;;
6209;SDS011;3138;52.550;13.148;2023-12-07T02:22:02;49.67;;;28.60;;
6209;SDS011;3138;52.550;13.148;2023-12-07T02:24:33;48.27;;;26.60;;
6209;SDS011;3138;52.550;13.148;2023-12-07T02:27:10;49.40;;;28.00;;
6209;SDS011;3138;52.550;13.148;2023-12-07T02:29:37;49.20;;;28.10;;
6209;SDS011;3138;52.550;13.148;2023-12-07T02:32:04;44.00;;;26.57;;
6209;SDS011;3138;52.550;13.148;2023-12-07T02:34:31;46.13;;;26.97;;
6209;SDS011;3138;52.550;13.148;2023-12-07T02:36:57;51.47;;;28.27;;
6209;SDS011;3138;52.550;13.148;2023-12-07T02:39:27;55.30;;;29.93;;
6209;SDS011;3138;52.550;13.148;2023-12-07T02:41:53;46.60;;;27.40;;
6209;SDS011;3138;52.550;13.148;2023-12-07T02:44:23;52.60;;;30.33;;
6209;SDS011;3138;52.550;13.148;2023-12-07T02:46:50;51.50;;;28.83;;
6209;SDS011;3138;52.550;13.148;2023-12-07T02:49:17;51.00;;;28.97;;
6209;SDS011;3138;52.550;13.148;2023-12-07T02:51:44;55.13;;;30.47;;
6209;SDS011;3138;52.550;13.148;2023-12-07T02:54:11;49.63;;;27.50;;
6209;SDS011;3138;52.550;13.148;2023-12-07T02:56:38;54.77;;;29.83;;
6209;SDS011;3138;52.550;13.148;2023-12-07T02:59:04;46.27;;;27.90;;
6209;SDS011;3138;52.550;13.148;2023-12-07T03:01:33;53.60;;;30.20;;
6209;SDS011;3138;52.550;13.148;2023-12-07T03:03:59;59.00;;;31.43;;
6209;SDS011;3138;52.550;13.148;2023-12-07T03:06:26;61.07;;;30.93;;
6209;SDS011;3138;52.550;13.148;2023-12-07T03:08:53;47.57;;;27.37;;
6209;SDS011;3138;52.550;13.148;2023-12-07T03:11:20;54.67;;;27.83;;
6209;SDS011;3138;52.550;13.148;2023-12-07T03:13:47;47.00;;;28.70;;
6209;SDS011;3138;52.550;13.148;2023-12-07T03:16:14;47.47;;;27.60;;
6209;SDS011;3138;52.550;13.148;2023-12-07T03:18:42;49.10;;;29.40;;
6209;SDS011;3138;52.550;13.148;2023-12-07T03:21:09;42.77;;;26.37;;
6209;SDS011;3138;52.550;13.148;2023-12-07T03:23:35;48.13;;;27.30;;
6209;SDS011;3138;52.550;13.148;2023-12-07T03:26:02;48.27;;;26.73;;
6209;SDS011;3138;52.550;13.148;2023-12-07T03:28:29;56.80;;;29.80;;
6209;SDS011;3138;52.550;13.148;2023-12-07T03:30:56;54.33;;;29.70;;
6209;SDS011;3138;52.550;13.148;2023-12-07T03:33:23;49.33;;;27.43;;
6209;SDS011;3138;52.550;13.148;2023-12-07T03:35:51;48.30;;;27.93;;
6209;SDS011;3138;52.550;13.148;2023-12-07T03:38:18;46.60;;;28.50;;
6209;SDS011;3138;52.550;13.148;2023-12-07T03:40:45;49.70;;;27.57;;
6209;SDS011;3138;52.550;13.148;2023-12-07T03:43:13;46.27;;;26.90;;
6209;SDS011;3138;52.550;13.148;2023-12-07T03:45:39;49.83;;;29.00;;
6209;SDS011;3138;52.550;13.148;2023-12-07T03:48:06;47.33;;;27.13;;
6209;SDS011;3138;52.550;13.148;2023-12-07T03:50:33;47.47;;;27.87;;
6209;SDS011;3138;52.550;13.148;2023-12-07T03:53:01;47.30;;;27.63;;
6209;SDS011;3138;52.550;13.148;2023-12-07T03:55:28;47.33;;;28.20;;
6209;SDS011;3138;52.550;13.148;2023-12-07T03:57:55;50.70;;;25.43;;
6209;SDS011;3138;52.550;13.148;2023-12-07T04:00:22;51.90;;;29.20;;
6209;SDS011;3138;52.550;13.148;2023-12-07T04:02:49;50.20;;;28.50;;
6209;SDS011;3138;52.550;13.148;2023-12-07T04:05:15;50.13;;;27.67;;
6209;SDS011;3138;52.550;13.148;2023-12-07T04:07:42;47.47;;;28.00;;
6209;SDS011;3138;52.550;13.148;2023-12-07T04:10:12;54.07;;;30.70;;
6209;SDS011;3138;52.550;13.148;2023-12-07T04:12:39;50.77;;;26.80;;
6209;SDS011;3138;52.550;13.148;2023-12-07T04:15:06;50.03;;;27.93;;
6209;SDS011;3138;52.550;13.148;2023-12-07T04:17:33;45.90;;;27.40;;
6209;SDS011;3138;52.550;13.148;2023-12-07T04:20:00;55.30;;;27.90;;
6209;SDS011;3138;52.550;13.148;2023-12-07T04:22:28;52.67;;;28.53;;
6209;SDS011;3138;52.550;13.148;2023-12-07T04:24:55;53.07;;;28.07;;
6209;SDS011;3138;52.550;13.148;2023-12-07T04:27:23;54.20;;;29.30;;
6209;SDS011;3138;52.550;13.148;2023-12-07T04:29:50;50.83;;;28.63;;
6209;SDS011;3138;52.550;13.148;2023-12-07T04:32:17;48.97;;;28.57;;
6209;SDS011;3138;52.550;13.148;2023-12-07T04:34:44;50.90;;;28.93;;
6209;SDS011;3138;52.550;13.148;2023-12-07T04:37:11;48.23;;;27.50;;
6209;SDS011;3138;52.550;13.148;2023-12-07T04:39:37;50.63;;;28.43;;
6209;SDS011;3138;52.550;13.148;2023-12-07T04:42:04;46.60;;;27.57;;
6209;SDS011;3138;52.550;13.148;2023-12-07T04:44:32;51.90;;;28.27;;
6209;SDS011;3138;52.550;13.148;2023-12-07T04:46:59;46.63;;;27.40;;
6209;SDS011;3138;52.550;13.148;2023-12-07T04:49:26;44.33;;;26.50;;
6209;SDS011;3138;52.550;13.148;2023-12-07T04:51:53;51.90;;;27.80;;
6209;SDS011;3138;52.550;13.148;2023-12-07T04:54:20;46.40;;;27.47;;
6209;SDS011;3138;52.550;13.148;2023-12-07T04:56:47;50.03;;;28.80;;
6209;SDS011;3138;52.550;13.148;2023-12-07T04:59:13;51.30;;;28.03;;
6209;SDS011;3138;52.550;13.148;2023-12-07T05:01:42;51.30;;;27.80;;
6209;SDS011;3138;52.550;13.148;2023-12-07T05:04:09;48.93;;;27.50;;
6209;SDS011;3138;52.550;13.148;2023-12-07T05:06:35;50.73;;;29.77;;
6209;SDS011;3138;52.550;13.148;2023-12-07T05:09:02;46.90;;;26.67;;
6209;SDS011;3138;52.550;13.148;2023-12-07T05:11:29;53.73;;;29.30;;
6209;SDS011;3138;52.550;13.148;2023-12-07T05:13:56;51.87;;;28.37;;
6209;SDS011;3138;52.550;13.148;2023-12-07T05:16:23;51.50;;;27.97;;
6209;SDS011;3138;52.550;13.148;2023-12-07T05:18:51;53.27;;;28.30;;
6209;SDS011;3138;52.550;13.148;2023-12-07T05:21:18;60.73;;;30.10;;
6209;SDS011;3138;52.550;13.148;2023-12-07T05:23:45;44.53;;;26.23;;
6209;SDS011;3138;52.550;13.148;2023-12-07T05:26:12;56.70;;;28.37;;
6209;SDS011;3138;52.550;13.148;2023-12-07T05:28:39;57.77;;;29.77;;
6209;SDS011;3138;52.550;13.148;2023-12-07T05:31:06;56.73;;;30.13;;
6209;SDS011;3138;52.550;13.148;2023-12-07T05:33:33;51.23;;;28.63;;
6209;SDS011;3138;52.550;13.148;2023-12-07T05:36:01;60.43;;;30.93;;
6209;SDS011;3138;52.550;13.148;2023-12-07T05:38:28;58.67;;;32.00;;
6209;SDS011;3138;52.550;13.148;2023-12-07T05:40:55;58.40;;;31.23;;
6209;SDS011;3138;52.550;13.148;2023-12-07T05:43:22;58.77;;;29.97;;
6209;SDS011;3138;52.550;13.148;2023-12-07T05:45:48;58.40;;;30.70;;
6209;SDS011;3138;52.550;13.148;2023-12-07T05:48:15;62.13;;;31.23;;
6209;SDS011;3138;52.550;13.148;2023-12-07T05:50:42;55.03;;;30.70;;
6209;SDS011;3138;52.550;13.148;2023-12-07T05:53:10;59.90;;;30.97;;
6209;SDS011;3138;52.550;13.148;2023-12-07T05:55:38;59.57;;;30.43;;
6209;SDS011;3138;52.550;13.148;2023-12-07T05:58:05;60.10;;;29.40;;
6209;SDS011;3138;52.550;13.148;2023-12-07T06:00:32;57.33;;;30.47;;
6209;SDS011;3138;52.550;13.148;2023-12-07T06:02:59;66.37;;;32.90;;
6209;SDS011;3138;52.550;13.148;2023-12-07T06:05:27;60.73;;;29.33;;
6209;SDS011;3138;52.550;13.148;2023-12-07T06:07:54;56.30;;;31.27;;
6209;SDS011;3138;52.550;13.148;2023-12-07T06:10:22;59.87;;;29.03;;
6209;SDS011;3138;52.550;13.148;2023-12-07T06:12:49;56.20;;;29.57;;
6209;SDS011;3138;52.550;13.148;2023-12-07T06:15:16;53.93;;;31.00;;
6209;SDS011;3138;52.550;13.148;2023-12-07T06:17:43;60.03;;;31.27;;
6209;SDS011;3138;52.550;13.148;2023-12-07T06:20:10;63.63;;;31.63;;
6209;SDS011;3138;52.550;13.148;2023-12-07T06:22:37;64.43;;;31.63;;
6209;SDS011;3138;52.550;13.148;2023-12-07T06:25:04;61.73;;;31.97;;
6209;SDS011;3138;52.550;13.148;2023-12-07T06:27:34;59.40;;;30.03;;
6209;SDS011;3138;52.550;13.148;2023-12-07T06:30:02;71.37;;;31.53;;
6209;SDS011;3138;52.550;13.148;2023-12-07T06:32:30;55.60;;;30.70;;
6209;SDS011;3138;52.550;13.148;2023-12-07T06:34:57;60.77;;;29.03;;
6209;SDS011;3138;52.550;13.148;2023-12-07T06:37:24;60.23;;;31.60;;
6209;SDS011;3138;52.550;13.148;2023-12-07T06:39:51;63.20;;;30.80;;
6209;SDS011;3138;52.550;13.148;2023-12-07T06:42:18;62.37;;;32.83;;
6209;SDS011;3138;52.550;13.148;2023-12-07T06:44:47;51.37;;;29.13;;
6209;SDS011;3138;52.550;13.148;2023-12-07T06:47:15;55.93;;;30.57;;
6209;SDS011;3138;52.550;13.148;2023-12-07T06:49:42;52.80;;;29.70;;
6209;SDS011;3138;52.550;13.148;2023-12-07T06:52:09;56.60;;;29.63;;
6209;SDS011;3138;52.550;13.148;2023-12-07T06:54:36;62.13;;;30.77;;
6209;SDS011;3138;52.550;13.148;2023-12-07T06:57:03;73.27;;;29.40;;
6209;SDS011;3138;52.550;13.148;2023-12-07T06:59:31;53.40;;;28.57;;
6209;SDS011;3138;52.550;13.148;2023-12-07T07:02:00;63.50;;;32.40;;
6209;SDS011;3138;52.550;13.148;2023-12-07T07:04:27;52.80;;;29.80;;
6209;SDS011;3138;52.550;13.148;2023-12-07T07:06:54;61.80;;;31.43;;
6209;SDS011;3138;52.550;13.148;2023-12-07T07:09:21;53.37;;;30.77;;
6209;SDS011;3138;52.550;13.148;2023-12-07T07:11:48;52.53;;;29.50;;
6209;SDS011;3138;52.550;13.148;2023-12-07T07:14:15;61.17;;;33.03;;
6209;SDS011;3138;52.550;13.148;2023-12-07T07:16:42;56.27;;;32.93;;
6209;SDS011;3138;52.550;13.148;2023-12-07T07:19:11;65.93;;;33.67;;
6209;SDS011;3138;52.550;13.148;2023-12-07T07:21:38;59.87;;;31.70;;
6209;SDS011;3138;52.550;13.148;2023-12-07T07:24:05;54.77;;;31.27;;
6209;SDS011;3138;52.550;13.148;2023-12-07T07:26:32;65.87;;;31.93;;
6209;SDS011;3138;52.550;13.148;2023-12-07T07:28:59;56.30;;;30.67;;
6209;SDS011;3138;52.550;13.148;2023-12-07T07:31:26;55.17;;;30.80;;
6209;SDS011;3138;52.550;13.148;2023-12-07T07:33:53;63.00;;;31.60;;
6209;SDS011;3138;52.550;13.148;2023-12-07T07:36:21;59.67;;;31.47;;
6209;SDS011;3138;52.550;13.148;2023-12-07T07:38:48;63.70;;;31.70;;
6209;SDS011;3138;52.550;13.148;2023-12-07T07:41:15;53.83;;;30.83;;
6209;SDS011;3138;52.550;13.148;2023-12-07T07:43:42;61.00;;;31.80;;
6209;SDS011;3138;52.550;13.148;2023-12-07T07:46:09;59.37;;;30.80;;
6209;SDS011;3138;52.550;13.148;2023-12-07T07:48:35;60.07;;;31.30;;
6209;SDS011;3138;52.550;13.148;2023-12-07T07:51:04;68.70;;;33.30;;
6209;SDS011;3138;52.550;13.148;2023-12-07T07:53:32;63.80;;;33.00;;
6209;SDS011;3138;52.550;13.148;2023-12-07T07:55:59;60.13;;;32.70;;
6209;SDS011;3138;52.550;13.148;2023-12-07T07:58:26;56.77;;;31.00;;
6209;SDS011;3138;52.550;13.148;2023-12-07T08:00:53;60.33;;;31.47;;
6209;SDS011;3138;52.550;13.148;2023-12-07T08:03:20;60.37;;;33.53;;
6209;SDS011;3138;52.550;13.148;2023-12-07T08:05:46;53.07;;;29.57;;
6209;SDS011;3138;52.550;13.148;2023-12-07T08:08:13;58.10;;;32.97;;
6209;SDS011;3138;52.550;13.148;2023-12-07T08:10:41;61.53;;;32.90;;
6209;SDS011;3138;52.550;13.148;2023-12-07T08:13:08;58.97;;;32.90;;
6209;SDS011;3138;52.550;13.148;2023-12-07T08:15:35;66.90;;;33.97;;
6209;SDS011;3138;52.550;13.148;2023-12-07T08:18:02;61.30;;;33.07;;
6209;SDS011;3138;52.550;13.148;2023-12-07T08:20:29;62.70;;;35.40;;
6209;SDS011;3138;52.550;13.148;2023-12-07T08:22:55;73.00;;;34.70;;
6209;SDS011;3138;52.550;13.148;2023-12-07T08:25:22;56.60;;;31.53;;
6209;SDS011;3138;52.550;13.148;2023-12-07T08:27:50;66.33;;;34.77;;
6209;SDS011;3138;52.550;13.148;2023-12-07T08:30:17;70.40;;;33.27;;
6209;SDS011;3138;52.550;13.148;2023-12-07T08:32:45;80.30;;;35.43;;
6209;SDS011;3138;52.550;13.148;2023-12-07T08:35:11;72.43;;;33.47;;
6209;SDS011;3138;52.550;13.148;2023-12-07T08:37:38;68.03;;;33.43;;
6209;SDS011;3138;52.550;13.148;2023-12-07T08:40:05;69.20;;;34.30;;
6209;SDS011;3138;52.550;13.148;2023-12-07T08:42:32;67.90;;;32.87;;
6209;SDS011;3138;52.550;13.148;2023-12-07T08:45:00;66.00;;;33.60;;
6209;SDS011;3138;52.550;13.148;2023-12-07T08:47:27;68.90;;;33.57;;
6209;SDS011;3138;52.550;13.148;2023-12-07T08:49:55;68.70;;;33.60;;
6209;SDS011;3138;52.550;13.148;2023-12-07T08:52:22;68.70;;;31.93;;
6209;SDS011;3138;52.550;13.148;2023-12-07T08:54:49;56.27;;;30.80;;
6209;SDS011;3138;52.550;13.148;2023-12-07T08:57:17;62.73;;;32.43;;
6209;SDS011;3138;52.550;13.148;2023-12-07T08:59:44;60.07;;;30.00;;
6209;SDS011;3138;52.550;13.148;2023-12-07T09:02:12;73.27;;;34.33;;
6209;SDS011;3138;52.550;13.148;2023-12-07T09:04:39;64.23;;;32.77;;
6209;SDS011;3138;52.550;13.148;2023-12-07T09:07:06;65.93;;;33.23;;
6209;SDS011;3138;52.550;13.148;2023-12-07T09:09:34;59.77;;;31.70;;
6209;SDS011;3138;52.550;13.148;2023-12-07T09:12:01;60.30;;;32.10;;
6209;SDS011;3138;52.550;13.148;2023-12-07T09:14:28;62.47;;;32.33;;
6209;SDS011;3138;52.550;13.148;2023-12-07T09:16:55;68.17;;;33.50;;
6209;SDS011;3138;52.550;13.148;2023-12-07T09:19:23;65.00;;;34.33;;
6209;SDS011;3138;52.550;13.148;2023-12-07T09:21:50;69.40;;;34.80;;
6209;SDS011;3138;52.550;13.148;2023-12-07T09:24:16;63.60;;;33.83;;
6209;SDS011;3138;52.550;13.148;2023-12-07T09:26:44;63.33;;;33.27;;
6209;SDS011;3138;52.550;13.148;2023-12-07T09:29:13;68.63;;;34.40;;
6209;SDS011;3138;52.550;13.148;2023-12-07T09:31:39;80.17;;;37.60;;
6209;SDS011;3138;52.550;13.148;2023-12-07T09:34:06;72.70;;;34.63;;
6209;SDS011;3138;52.550;13.148;2023-12-07T09:36:35;71.37;;;33.33;;
6209;SDS011;3138;52.550;13.148;2023-12-07T09:39:02;75.67;;;35.63;;
6209;SDS011;3138;52.550;13.148;2023-12-07T09:41:29;73.80;;;36.67;;
6209;SDS011;3138;52.550;13.148;2023-12-07T09:43:56;77.70;;;34.40;;
6209;SDS011;3138;52.550;13.148;2023-12-07T09:46:25;73.40;;;34.33;;
6209;SDS011;3138;52.550;13.148;2023-12-07T09:48:53;79.83;;;36.27;;
6209;SDS011;3138;52.550;13.148;2023-12-07T09:51:20;82.50;;;36.53;;
6209;SDS011;3138;52.550;13.148;2023-12-07T09:53:49;82.00;;;38.13;;
6209;SDS011;3138;52.550;13.148;2023-12-07T09:56:19;84.70;;;35.67;;
6209;SDS011;3138;52.550;13.148;2023-12-07T09:58:46;83.03;;;36.63;;
6209;SDS011;3138;52.550;13.148;2023-12-07T10:01:13;75.27;;;36.00;;
6209;SDS011;3138;52.550;13.148;2023-12-07T10:03:40;83.40;;;35.50;;
6209;SDS011;3138;52.550;13.148;2023-12-07T10:06:08;84.77;;;35.13;;
6209;SDS011;3138;52.550;13.148;2023-12-07T10:08:34;80.60;;;37.07;;
6209;SDS011;3138;52.550;13.148;2023-12-07T10:11:04;88.63;;;36.93;;
6209;SDS011;3138;52.550;13.148;2023-12-07T10:13:32;84.93;;;35.50;;
6209;SDS011;3138;52.550;13.148;2023-12-07T10:16:07;90.67;;;37.90;;
6209;SDS011;3138;52.550;13.148;2023-12-07T10:18:35;74.53;;;32.70;;
6209;SDS011;3138;52.550;13.148;2023-12-07T10:21:04;86.43;;;36.83;;
6209;SDS011;3138;52.550;13.148;2023-12-07T10:23:32;83.30;;;34.50;;
6209;SDS011;3138;52.550;13.148;2023-12-07T10:25:59;76.23;;;33.97;;
6209;SDS011;3138;52.550;13.148;2023-12-07T10:28:28;78.53;;;33.37;;
6209;SDS011;3138;52.550;13.148;2023-12-07T10:30:55;83.07;;;36.03;;
6209;SDS011;3138;52.550;13.148;2023-12-07T10:33:23;82.77;;;37.67;;
6209;SDS011;3138;52.550;13.148;2023-12-07T10:35:51;71.73;;;33.73;;
6209;SDS011;3138;52.550;13.148;2023-12-07T10:38:18;77.73;;;38.10;;
6209;SDS011;3138;52.550;13.148;2023-12-07T10:40:45;80.13;;;35.90;;
6209;SDS011;3138;52.550;13.148;2023-12-07T10:43:13;80.67;;;36.80;;
6209;SDS011;3138;52.550;13.148;2023-12-07T10:45:43;77.40;;;35.40;;
6209;SDS011;3138;52.550;13.148;2023-12-07T10:48:13;83.50;;;36.00;;
6209;SDS011;3138;52.550;13.148;2023-12-07T10:50:41;86.40;;;37.00;;
6209;SDS011;3138;52.550;13.148;2023-12-07T10:55:55;82.00;;;36.73;;
6209;SDS011;3138;52.550;13.148;2023-12-07T10:58:25;73.63;;;34.73;;
6209;SDS011;3138;52.550;13.148;2023-12-07T11:00:54;90.47;;;36.53;;
6209;SDS011;3138;52.550;13.148;2023-12-07T11:03:21;79.40;;;37.77;;
6209;SDS011;3138;52.550;13.148;2023-12-07T11:05:49;87.37;;;37.17;;
6209;SDS011;3138;52.550;13.148;2023-12-07T11:08:18;84.77;;;38.07;;
6209;SDS011;3138;52.550;13.148;2023-12-07T11:11:00;94.77;;;40.10;;
6209;SDS011;3138;52.550;13.148;2023-12-07T11:13:31;90.10;;;36.87;;
6209;SDS011;3138;52.550;13.148;2023-12-07T11:16:03;86.87;;;38.77;;
6209;SDS011;3138;52.550;13.148;2023-12-07T11:18:31;84.73;;;36.80;;
6209;SDS011;3138;52.550;13.148;2023-12-07T11:20:58;89.67;;;39.17;;
6209;SDS011;3138;52.550;13.148;2023-12-07T11:23:28;99.77;;;41.50;;
6209;SDS011;3138;52.550;13.148;2023-12-07T11:25:55;92.00;;;39.23;;
6209;SDS011;3138;52.550;13.148;2023-12-07T11:28:33;99.40;;;41.10;;
6209;SDS011;3138;52.550;13.148;2023-12-07T11:31:02;91.07;;;40.17;;
6209;SDS011;3138;52.550;13.148;2023-12-07T11:33:31;87.33;;;40.17;;
6209;SDS011;3138;52.550;13.148;2023-12-07T11:36:05;91.23;;;37.93;;
6209;SDS011;3138;52.550;13.148;2023-12-07T11:38:34;104.17;;;39.80;;
6209;SDS011;3138;52.550;13.148;2023-12-07T11:41:02;97.67;;;41.27;;
6209;SDS011;3138;52.550;13.148;2023-12-07T11:43:42;87.93;;;38.13;;
6209;SDS011;3138;52.550;13.148;2023-12-07T11:46:12;101.50;;;43.23;;
6209;SDS011;3138;52.550;13.148;2023-12-07T11:48:44;104.23;;;41.63;;
6209;SDS011;3138;52.550;13.148;2023-12-07T11:51:13;104.37;;;44.70;;
6209;SDS011;3138;52.550;13.148;2023-12-07T11:53:41;97.70;;;43.50;;
6209;SDS011;3138;52.550;13.148;2023-12-07T11:56:08;108.43;;;42.83;;
6209;SDS011;3138;52.550;13.148;2023-12-07T11:58:38;107.77;;;45.13;;
6209;SDS011;3138;52.550;13.148;2023-12-07T12:01:05;105.13;;;45.40;;
6209;SDS011;3138;52.550;13.148;2023-12-07T12:03:34;96.57;;;43.30;;
6209;SDS011;3138;52.550;13.148;2023-12-07T12:06:03;104.27;;;44.53;;
6209;SDS011;3138;52.550;13.148;2023-12-07T12:08:31;115.30;;;46.23;;
6209;SDS011;3138;52.550;13.148;2023-12-07T12:10:58;120.13;;;45.10;;
6209;SDS011;3138;52.550;13.148;2023-12-07T12:13:28;110.27;;;48.07;;
6209;SDS011;3138;52.550;13.148;2023-12-07T12:15:55;121.83;;;50.20;;
6209;SDS011;3138;52.550;13.148;2023-12-07T12:18:22;124.30;;;50.77;;
6209;SDS011;3138;52.550;13.148;2023-12-07T12:20:52;130.80;;;50.20;;
6209;SDS011;3138;52.550;13.148;2023-12-07T12:23:20;117.67;;;48.03;;
6209;SDS011;3138;52.550;13.148;2023-12-07T12:25:47;112.53;;;47.73;;
6209;SDS011;3138;52.550;13.148;2023-12-07T12:28:15;118.17;;;46.53;;
6209;SDS011;3138;52.550;13.148;2023-12-07T12:30:44;112.70;;;46.13;;
6209;SDS011;3138;52.550;13.148;2023-12-07T12:33:12;116.50;;;44.43;;
6209;SDS011;3138;52.550;13.148;2023-12-07T12:35:39;121.17;;;47.30;;
6209;SDS011;3138;52.550;13.148;2023-12-07T12:38:10;123.27;;;47.43;;
6209;SDS011;3138;52.550;13.148;2023-12-07T12:40:37;117.90;;;48.17;;
6209;SDS011;3138;52.550;13.148;2023-12-07T12:43:06;112.33;;;46.37;;
6209;SDS011;3138;52.550;13.148;2023-12-07T12:45:33;121.17;;;49.03;;
6209;SDS011;3138;52.550;13.148;2023-12-07T12:48:00;118.57;;;47.90;;
6209;SDS011;3138;52.550;13.148;2023-12-07T12:50:33;118.30;;;44.77;;
6209;SDS011;3138;52.550;13.148;2023-12-07T12:53:02;132.33;;;47.60;;
6209;SDS011;3138;52.550;13.148;2023-12-07T12:55:31;142.07;;;48.80;;
6209;SDS011;3138;52.550;13.148;2023-12-07T12:58:02;120.17;;;48.63;;
6209;SDS011;3138;52.550;13.148;2023-12-07T13:00:30;121.13;;;49.27;;
6209;SDS011;3138;52.550;13.148;2023-12-07T13:02:57;118.63;;;48.30;;
6209;SDS011;3138;52.550;13.148;2023-12-07T13:05:24;122.90;;;50.30;;
6209;SDS011;3138;52.550;13.148;2023-12-07T13:07:51;117.90;;;47.07;;
6209;SDS011;3138;52.550;13.148;2023-12-07T13:10:18;116.67;;;46.93;;
6209;SDS011;3138;52.550;13.148;2023-12-07T13:12:47;117.40;;;48.67;;
6209;SDS011;3138;52.550;13.148;2023-12-07T13:15:14;126.17;;;51.23;;
6209;SDS011;3138;52.550;13.148;2023-12-07T13:17:41;129.47;;;50.70;;
6209;SDS011;3138;52.550;13.148;2023-12-07T13:20:08;141.37;;;53.20;;
6209;SDS011;3138;52.550;13.148;2023-12-07T13:22:36;126.83;;;53.30;;
6209;SDS011;3138;52.550;13.148;2023-12-07T13:25:04;130.70;;;50.10;;
6209;SDS011;3138;52.550;13.148;2023-12-07T13:27:32;132.17;;;51.67;;
6209;SDS011;3138;52.550;13.148;2023-12-07T13:30:01;130.03;;;48.97;;
6209;SDS011;3138;52.550;13.148;2023-12-07T13:32:31;156.60;;;50.77;;
6209;SDS011;3138;52.550;13.148;2023-12-07T13:34:58;163.10;;;52.33;;
6209;SDS011;3138;52.550;13.148;2023-12-07T13:37:25;147.50;;;53.90;;
6209;SDS011;3138;52.550;13.148;2023-12-07T13:39:52;159.83;;;56.20;;
6209;SDS011;3138;52.550;13.148;2023-12-07T13:42:23;158.50;;;55.13;;
6209;SDS011;3138;52.550;13.148;2023-12-07T13:44:51;162.73;;;54.80;;
6209;SDS011;3138;52.550;13.148;2023-12-07T13:47:20;167.83;;;56.13;;
6209;SDS011;3138;52.550;13.148;2023-12-07T13:49:51;180.33;;;56.43;;
6209;SDS011;3138;52.550;13.148;2023-12-07T13:52:18;180.93;;;53.77;;
6209;SDS011;3138;52.550;13.148;2023-12-07T13:54:45;203.43;;;57.50;;
6209;SDS011;3138;52.550;13.148;2023-12-07T13:57:13;211.50;;;54.97;;
6209;SDS011;3138;52.550;13.148;2023-12-07T13:59:40;200.40;;;56.23;;
6209;SDS011;3138;52.550;13.148;2023-12-07T14:02:07;201.37;;;55.63;;
6209;SDS011;3138;52.550;13.148;2023-12-07T14:04:35;202.73;;;54.87;;
6209;SDS011;3138;52.550;13.148;2023-12-07T14:07:09;189.37;;;56.97;;
6209;SDS011;3138;52.550;13.148;2023-12-07T14:09:37;203.40;;;54.27;;
6209;SDS011;3138;52.550;13.148;2023-12-07T14:12:07;210.63;;;58.10;;
6209;SDS011;3138;52.550;13.148;2023-12-07T14:14:35;221.03;;;52.40;;
6209;SDS011;3138;52.550;13.148;2023-12-07T14:17:02;196.50;;;54.83;;
6209;SDS011;3138;52.550;13.148;2023-12-07T14:19:29;212.73;;;60.73;;
6209;SDS011;3138;52.550;13.148;2023-12-07T14:21:57;272.40;;;52.97;;
6209;SDS011;3138;52.550;13.148;2023-12-07T14:24:25;199.63;;;52.57;;
6209;SDS011;3138;52.550;13.148;2023-12-07T14:26:52;297.70;;;51.50;;
6209;SDS011;3138;52.550;13.148;2023-12-07T14:29:19;224.13;;;53.10;;
6209;SDS011;3138;52.550;13.148;2023-12-07T14:31:47;273.20;;;51.97;;
6209;SDS011;3138;52.550;13.148;2023-12-07T14:34:14;224.23;;;54.17;;
6209;SDS011;3138;52.550;13.148;2023-12-07T14:36:41;214.57;;;53.53;;